This demonstration page uses our WeatherBlox Daily Observations layout. Learn more.

38.88101, -77.10428

Hourly Observations for March 23, 2017

Temp ( °F °C ) Dew Point ( °F °C ) Humidity (%) Winds ( mph kmh ) Pressure ( in mb ) Visibility ( mi km ) Precip ( " mm )
12:52 am 00:52 Clear 37 2.8 3 -16.1 24 24 N 14 22 30.48 1032 10 16.09344 0 0
1:52 am 01:52 Clear 35 1.7 7 -13.9 31 31 NNE 10 17 30.48 1032 10 16.09344 0 0
2:52 am 02:52 Clear 34 1.1 9 -12.8 35 35 ENE 10 17 30.5 1033 10 16.09344 0 0
3:52 am 03:52 Clear 32 0 6 -14.4 33 33 NNE 8 13 30.53 1034 10 16.09344 0 0
4:52 am 04:52 Clear 32 0 7 -13.9 35 35 ENE 6 9 30.53 1034 10 16.09344 0 0
5:52 am 05:52 Clear 30 -1.1 8 -13.3 39 39 E 7 11 30.59 1036 10 16.09344 0 0
6:52 am 06:52 Clear 30 -1.1 7 -13.9 38 38 ENE 7 11 30.62 1037 10 16.09344 0 0
7:52 am 07:52 Mostly Sunny 30 -1.1 7 -13.9 38 38 E 7 11 30.62 1037 10 16.09344 0 0
8:52 am 08:52 Mostly Sunny 32 0 5 -15 32 32 NE 8 13 30.65 1038 10 16.09344 0 0
9:52 am 09:52 Sunny 34 1.1 6 -14.4 31 31 NE 6 9 30.65 1038 10 16.09344 0 0
10:52 am 10:52 Sunny 36 2.2 3 -16.1 25 25 Calm 30.65 1038 10 16.09344 0 0
11:52 am 11:52 Sunny 39 3.9 5 -15 24 24 N 3 6 30.65 1038 10 16.09344 0 0
12:52 pm 12:52 Mostly Sunny 40 4.4 4 -15.6 22 22 N 3 6 30.62 1037 10 16.09344 0 0
1:52 pm 13:52 Sunny 42 5.6 6 -14.4 22 22 SE 6 9 30.62 1037 10 16.09344 0 0
2:52 pm 14:52 Mostly Sunny 45 7.2 6 -14.4 20 20 SSE 8 13 30.56 1035 10 16.09344 0 0
3:52 pm 15:52 Mostly Sunny 47 8.3 10 -12.2 22 22 S 13 20 30.56 1035 10 16.09344 0 0
4:52 pm 16:52 Mostly Sunny 47 8.3 5 -15 18 18 ESE 6 9 30.53 1034 10 16.09344 0 0
5:52 pm 17:52 Mostly Sunny 47 8.3 9 -12.8 21 21 S 8 13 30.5 1033 10 16.09344 0 0
6:52 pm 18:52 Mostly Sunny 46 7.8 12 -11.1 25 25 S 8 13 30.5 1033 10 16.09344 0 0
7:52 pm 19:52 Mostly Clear 45 7.2 13 -10.6 27 27 S 7 11 30.5 1033 10 16.09344 0 0
8:52 pm 20:52 Clear 43 6.1 14 -10 31 31 SE 7 11 30.5 1033 10 16.09344 0 0
9:52 pm 21:52 Mostly Clear 42 5.6 19 -7.2 40 40 SSE 9 15 30.53 1034 10 16.09344 0 0
10:52 pm 22:52 Clear 40 4.4 21 -6.1 47 47 S 13 20 30.53 1034 10 16.09344 0 0
11:52 pm 23:52 Clear 38 3.3 21 -6.1 51 51 S 13 20 30.53 1034 10 16.09344 0 0

Powered by AerisWeather